Time;durP1;ratioP1;P1;durP2;ratioP2;P2;SDS_P1;SDS_P2;PMS_P1;PMS_P2;Temp;Humidity;BMP_temperature;BMP_pressure;BME280_temperature;BME280_humidity;BME280_pressure;Samples;Min_cycle;Max_cycle;Signal;HPM_P1;HPM_P2
2024/01/31 00:02:22;;;;;;;31.90;19.10;;;10.00;1.00;;;8.56;100.00;102205.25;4972921;28;20055;-79
2024/01/31 00:04:49;;;;;;;47.45;21.98;;;9.90;1.00;;;8.37;100.00;102155.13;4992470;28;20097;-78
2024/01/31 00:07:17;;;;;;;37.00;20.13;;;9.80;1.00;;;8.49;100.00;102181.50;4992778;28;20042;-79
2024/01/31 00:09:44;;;;;;;29.13;18.70;;;9.70;1.00;;;8.29;100.00;102151.50;4977589;28;20077;-78
2024/01/31 00:12:13;;;;;;;32.42;20.42;;;9.60;1.00;;;8.06;100.00;102121.44;4979968;28;20096;-78
2024/01/31 00:14:44;;;;;;;23.13;17.48;;;9.60;1.00;;;8.15;100.00;102119.84;4997185;28;20104;-79
2024/01/31 00:17:11;;;;;;;31.25;20.67;;;10.00;1.00;;;8.28;100.00;102158.50;4988433;28;20077;-78
2024/01/31 00:19:38;;;;;;;26.08;17.35;;;9.70;1.00;;;8.42;100.00;102187.53;4990589;28;20076;-78
2024/01/31 00:22:08;;;;;;;;;;;10.30;1.00;;;8.11;100.00;102138.97;4976918;28;20275;-78
2024/01/31 00:24:35;;;;;;;21.30;14.88;;;10.30;1.00;;;7.89;100.00;102108.13;4991716;28;19921;-78
2024/01/31 00:27:02;;;;;;;18.55;14.05;;;9.60;1.00;;;8.44;100.00;102203.31;4989975;28;20058;-78
2024/01/31 00:29:29;;;;;;;18.58;14.90;;;9.60;1.00;;;8.38;100.00;102188.34;4984429;28;20090;-79
2024/01/31 00:31:56;;;;;;;19.92;14.60;;;10.10;1.00;;;8.46;100.00;102214.69;4992045;28;20145;-79
2024/01/31 00:34:24;;;;;;;19.77;14.80;;;9.60;1.00;;;7.96;100.00;102114.34;4969523;28;20488;-79
2024/01/31 00:36:51;;;;;;;21.60;14.88;;;9.60;1.00;;;8.26;100.00;102162.81;4991897;28;20754;-78
2024/01/31 00:39:20;;;;;;;17.83;14.85;;;9.90;1.00;;;8.07;100.00;102149.44;4992331;28;20081;-79
2024/01/31 00:41:47;;;;;;;27.90;15.40;;;9.70;1.00;;;8.09;100.00;102155.56;4993122;28;20046;-79
2024/01/31 00:44:15;;;;;;;20.85;15.13;;;9.60;1.00;;;8.29;100.00;102188.22;4994817;28;20755;-79
2024/01/31 00:46:44;;;;;;;19.70;15.60;;;9.60;1.00;;;8.29;100.00;102181.22;5009468;28;20038;-79
2024/01/31 00:49:14;;;;;;;20.70;15.55;;;10.30;1.00;;;8.20;100.00;102158.38;4973180;28;20053;-79
2024/01/31 00:51:44;;;;;;;24.65;16.52;;;9.60;1.00;;;7.99;100.00;102131.81;4991950;28;20381;-79
2024/01/31 00:54:12;;;;;;;22.27;16.05;;;9.60;1.00;;;8.33;100.00;102174.28;4992320;28;20053;-79
2024/01/31 00:56:39;;;;;;;21.13;15.27;;;9.70;1.00;;;8.25;100.00;102179.41;4994868;28;20080;-79
2024/01/31 00:59:06;;;;;;;20.90;14.65;;;9.60;1.00;;;8.48;100.00;102203.34;4980132;28;20054;-77
2024/01/31 01:01:33;;;;;;;20.02;14.95;;;9.60;1.00;;;8.19;100.00;102153.09;4994014;28;20046;-79
2024/01/31 01:04:01;;;;;;;20.50;16.92;;;9.60;1.00;;;8.32;100.00;102189.13;4968929;28;20057;-78
2024/01/31 01:06:28;;;;;;;22.23;17.27;;;9.60;1.00;;;8.00;100.00;102136.22;4977799;28;20042;-78
2024/01/31 01:08:55;;;;;;;20.52;15.25;;;9.60;1.00;;;8.40;100.00;102199.75;4992129;28;20046;-78
2024/01/31 01:11:22;;;;;;;24.35;15.55;;;9.60;1.00;;;8.44;100.00;102203.31;4995311;28;20035;-78
2024/01/31 01:13:50;;;;;;;21.15;15.30;;;9.60;1.00;;;8.19;100.00;102148.72;4994314;28;20042;-79
2024/01/31 01:16:20;;;;;;;20.10;15.23;;;8.70;1.00;;;8.49;100.00;102201.63;4994952;28;20101;-78
2024/01/31 01:18:47;;;;;;;17.02;14.25;;;9.60;1.00;;;8.04;100.00;102117.03;4976923;28;20046;-79
2024/01/31 01:21:15;;;;;;;18.90;14.48;;;9.70;1.00;;;8.42;100.00;102197.13;4962464;28;20038;-79
2024/01/31 01:23:42;;;;;;;18.75;16.40;;;9.70;1.00;;;8.36;100.00;102183.06;4995696;28;20389;-78
2024/01/31 01:26:09;;;;;;;16.83;14.80;;;9.60;1.00;;;7.58;100.00;102033.38;5010389;28;20042;-79
2024/01/31 01:28:36;;;;;;;19.42;14.77;;;9.60;1.00;;;8.35;100.00;102178.69;4993781;28;20137;-79
2024/01/31 01:31:03;;;;;;;18.17;14.25;;;9.60;1.00;;;7.83;100.00;102076.56;4995143;28;20030;-78
2024/01/31 01:33:30;;;;;;;18.67;14.40;;;9.60;1.00;;;8.22;100.00;102143.56;4996168;28;20039;-79
2024/01/31 01:35:57;;;;;;;17.15;14.15;;;9.70;1.00;;;8.13;100.00;102127.66;4999750;28;20766;-79
2024/01/31 01:38:24;;;;;;;21.27;15.90;;;9.70;1.00;;;8.14;100.00;102139.91;4999932;28;20078;-78
2024/01/31 01:40:51;;;;;;;20.55;15.30;;;9.60;1.00;;;8.23;100.00;102168.00;5015689;28;20078;-78
2024/01/31 01:43:20;;;;;;;18.63;15.18;;;9.60;1.00;;;7.94;100.00;102127.41;4998725;28;20087;-78
2024/01/31 01:45:48;;;;;;;19.75;14.80;;;9.60;1.00;;;8.23;100.00;102170.63;4998897;28;20046;-78
2024/01/31 01:48:18;;;;;;;17.77;14.57;;;10.70;1.00;;;8.23;100.00;102162.78;4997577;28;20038;-78
2024/01/31 01:50:45;;;;;;;17.20;13.85;;;9.50;1.00;;;7.97;100.00;102131.81;4996482;28;20049;-79
2024/01/31 01:53:13;;;;;;;19.38;14.98;;;9.50;1.00;;;7.73;100.00;102090.41;4981406;28;20833;-78
2024/01/31 01:55:42;;;;;;;18.50;14.30;;;9.80;1.00;;;8.07;100.00;102132.84;4997430;28;20042;-79
2024/01/31 01:58:10;;;;;;;18.23;14.45;;;9.50;1.00;;;8.34;100.00;102171.69;4998435;28;20523;-78
2024/01/31 02:00:40;;;;;;;23.85;16.15;;;10.00;1.00;;;8.22;100.00;102142.66;5012907;28;20049;-78
2024/01/31 02:03:07;;;;;;;17.08;14.48;;;9.50;1.00;;;7.94;100.00;102101.19;4997357;28;20054;-78
2024/01/31 02:05:35;;;;;;;19.10;14.52;;;9.50;1.00;;;8.29;100.00;102165.50;4980277;28;20137;-78
2024/01/31 02:08:02;;;;;;;19.15;14.25;;;9.60;1.00;;;7.11;100.00;101998.63;4979773;28;20069;-78
2024/01/31 02:10:30;;;;;;;17.70;14.98;;;9.60;1.00;;;8.33;100.00;102153.28;4997620;28;20046;-78
2024/01/31 02:12:57;;;;;;;18.95;15.77;;;9.60;1.00;;;8.40;100.00;102167.38;4997304;28;20050;-79
2024/01/31 02:15:24;;;;;;;17.35;14.50;;;10.20;1.00;;;7.80;100.00;102102.72;4996912;28;20046;-79
2024/01/31 02:17:51;;;;;;;21.98;14.55;;;10.00;1.00;;;8.08;100.00;102119.72;4997426;28;20100;-78
2024/01/31 02:20:19;;;;;;;17.52;13.65;;;9.60;1.00;;;8.44;100.00;102167.44;4981481;28;20042;-78
2024/01/31 02:22:47;;;;;;;16.00;13.52;;;9.60;1.00;;;8.21;100.00;102131.28;4981237;28;20085;-78
2024/01/31 02:25:15;;;;;;;16.60;13.80;;;9.60;1.00;;;7.31;100.00;101980.63;4995843;28;20038;-78
2024/01/31 02:27:42;;;;;;;17.17;14.00;;;9.60;1.00;;;8.36;100.00;102148.97;4999736;28;20368;-79
2024/01/31 02:30:09;;;;;;;18.13;14.25;;;9.70;1.00;;;8.57;100.00;102173.75;4998875;28;20133;-79
2024/01/31 02:32:37;;;;;;;20.65;14.70;;;9.70;1.00;;;8.52;100.00;102164.97;4999403;28;20129;-78
2024/01/31 02:35:05;;;;;;;16.35;14.07;;;9.70;1.00;;;8.04;100.00;102076.00;4980230;28;20050;-79
2024/01/31 02:37:32;;;;;;;18.17;14.45;;;9.70;1.00;;;8.40;100.00;102142.03;4980353;28;20118;-78
2024/01/31 02:40:00;;;;;;;16.83;13.57;;;10.20;1.00;;;8.25;100.00;102111.22;4974905;28;21487;-79
2024/01/31 02:42:27;;;;;;;16.55;14.10;;;9.70;1.00;;;8.29;100.00;102130.50;4982595;28;20417;-78
2024/01/31 02:44:54;;;;;;;22.85;14.55;;;9.70;1.00;;;8.23;100.00;102118.19;5013578;28;20074;-78
2024/01/31 02:47:21;;;;;;;17.92;14.23;;;9.70;1.00;;;8.33;100.00;102125.34;4996279;28;20038;-78
2024/01/31 02:49:48;;;;;;;17.35;14.45;;;9.70;1.00;;;8.61;100.00;102175.59;5010995;28;20409;-78
2024/01/31 02:52:15;;;;;;;18.50;13.85;;;9.70;1.00;;;8.61;100.00;102166.81;4993678;28;20126;-80
2024/01/31 02:54:42;;;;;;;15.30;13.40;;;9.80;1.00;;;8.40;100.00;102135.91;4993585;28;20038;-78
2024/01/31 02:57:09;;;;;;;15.23;13.05;;;9.80;1.00;;;8.60;100.00;102172.94;4977615;28;20057;-79
2024/01/31 02:59:38;;;;;;;17.88;13.50;;;9.80;1.00;;;8.55;100.00;102167.63;4994018;28;20054;-79
2024/01/31 03:02:05;;;;;;;17.98;13.88;;;9.90;1.00;;;8.16;100.00;102105.88;4995520;28;20038;-78
2024/01/31 03:04:35;;;;;;;15.27;12.55;;;9.70;1.00;;;8.19;100.00;102098.91;5010510;28;20585;-78
2024/01/31 03:07:03;;;;;;;16.17;13.00;;;9.80;1.00;;;8.29;100.00;102126.16;5009518;28;20038;-78
2024/01/31 03:09:30;;;;;;;16.38;13.68;;;9.70;1.00;;;8.52;100.00;102167.56;5009538;28;20031;-78
2024/01/31 03:11:57;;;;;;;16.58;12.98;;;9.70;1.00;;;8.08;100.00;102103.13;4993956;28;20046;-78
2024/01/31 03:14:27;;;;;;;15.00;12.70;;;9.60;1.00;;;7.28;100.00;101982.28;4978830;28;20047;-79
2024/01/31 03:16:56;;;;;;;18.02;15.40;;;9.70;1.00;;;8.51;100.00;102165.81;4979704;28;20093;-79
2024/01/31 03:19:28;;;;;;;17.42;14.70;;;10.20;1.00;;;8.27;100.00;102116.50;4975114;28;20114;-79
2024/01/31 03:21:56;;;;;;;18.42;13.75;;;9.70;1.00;;;8.59;100.00;102177.31;5010602;28;20043;-78
2024/01/31 03:24:23;;;;;;;16.40;13.52;;;9.70;1.00;;;8.56;100.00;102164.13;4967734;28;20054;-78
2024/01/31 03:26:51;;;;;;;19.05;13.07;;;9.70;1.00;;;8.38;100.00;102128.88;4994691;28;20073;-78
2024/01/31 03:29:18;;;;;;;17.77;14.57;;;9.80;1.00;;;8.34;100.00;102116.59;4978517;28;20141;-78
2024/01/31 03:31:46;;;;;;;15.98;14.32;;;9.80;1.00;;;8.43;100.00;102156.91;4977905;28;20038;-79
2024/01/31 03:34:14;;;;;;;18.30;14.00;;;9.80;1.00;;;8.61;100.00;102195.69;4987180;28;20073;-78
2024/01/31 03:36:41;;;;;;;19.98;13.98;;;9.80;1.00;;;8.58;100.00;102206.16;5011012;28;20047;-78
2024/01/31 03:39:12;;;;;;;18.80;14.07;;;9.80;1.00;;;8.49;100.00;102163.13;4974887;28;20141;-79
2024/01/31 03:41:45;;;;;;;19.17;14.52;;;9.80;1.00;;;8.18;100.00;102144.34;5008138;28;20109;-79
2024/01/31 03:44:13;;;;;;;16.80;14.27;;;10.30;1.00;;;8.46;100.00;102167.47;4994263;28;20069;-79
2024/01/31 03:46:41;;;;;;;17.73;14.70;;;9.80;1.00;;;8.53;100.00;102184.22;4994006;28;20038;-79
2024/01/31 03:49:08;;;;;;;20.10;14.32;;;9.90;1.00;;;8.49;100.00;102175.38;4993158;28;20046;-78
2024/01/31 03:51:35;;;;;;;16.73;13.50;;;9.80;1.00;;;8.48;100.00;102171.00;4994476;28;20050;-78
2024/01/31 03:54:02;;;;;;;17.13;13.52;;;9.80;1.00;;;8.67;100.00;102201.03;4984493;28;20050;-78
2024/01/31 03:56:29;;;;;;;15.55;11.52;;;9.80;2.20;;;8.26;100.00;102143.59;4993182;28;20125;-78
2024/01/31 03:58:59;;;;;;;13.10;10.95;;;9.80;9.60;;;8.53;100.00;102181.59;4976074;28;20060;-78
2024/01/31 04:01:26;;;;;;;;;;;9.90;11.90;;;8.71;100.00;102210.69;4994917;28;20520;-78
2024/01/31 04:03:53;;;;;;;13.38;9.93;;;9.90;20.30;;;8.72;100.00;102220.34;4994438;28;19925;-78
2024/01/31 04:06:20;;;;;;;12.15;9.40;;;9.90;24.10;;;8.54;100.00;102185.97;4993591;28;20054;-78
2024/01/31 04:08:47;;;;;;;11.60;10.10;;;9.80;24.70;;;8.70;100.00;102218.53;4988463;28;20041;-78
2024/01/31 04:11:17;;;;;;;14.02;9.63;;;9.90;26.10;;;8.48;100.00;102182.34;4976650;28;20046;-78
2024/01/31 04:13:47;;;;;;;12.20;9.10;;;9.90;26.90;;;8.78;100.00;102243.16;4977608;28;20046;-78
2024/01/31 04:16:16;;;;;;;19.08;9.50;;;9.90;29.20;;;8.38;100.00;102170.00;4992600;28;20057;-78
2024/01/31 04:18:43;;;;;;;14.35;10.20;;;9.90;28.40;;;8.57;100.00;102212.25;4977865;28;20038;-78
2024/01/31 04:21:17;;;;;;;13.10;9.32;;;9.90;30.20;;;8.69;100.00;102222.03;4994006;28;20142;-79
2024/01/31 04:23:44;;;;;;;15.35;9.45;;;9.90;29.10;;;8.33;100.00;102171.66;4987014;28;20048;-79
2024/01/31 04:26:11;;;;;;;14.80;10.35;;;9.90;24.30;;;8.55;100.00;102219.22;4995415;28;20126;-78
2024/01/31 04:28:38;;;;;;;10.98;8.98;;;9.90;23.60;;;8.55;100.00;102209.59;4994180;28;20049;-79
2024/01/31 04:31:15;;;;;;;12.07;7.85;;;9.80;28.10;;;8.42;100.00;102192.78;4974856;28;20065;-78
2024/01/31 04:33:43;;;;;;;10.55;7.72;;;9.90;25.50;;;8.45;100.00;102207.69;4974813;28;20147;-78
2024/01/31 04:36:11;;;;;;;10.43;7.32;;;9.90;21.60;;;8.53;100.00;102224.44;4955617;28;20449;-78
2024/01/31 04:38:38;;;;;;;13.80;7.05;;;9.50;19.80;;;8.70;100.00;102264.06;5004486;28;20062;-78
2024/01/31 04:41:05;;;;;;;10.90;7.00;;;9.80;20.40;;;8.60;100.00;102235.91;4976081;28;20070;-79
2024/01/31 04:43:32;;;;;;;11.25;6.43;;;9.90;19.30;;;8.44;100.00;102219.03;4959384;28;20046;-78
2024/01/31 04:45:59;;;;;;;10.70;6.93;;;10.50;15.30;;;8.45;100.00;102218.19;5008229;28;20026;-79
2024/01/31 04:48:26;;;;;;;11.23;6.85;;;9.90;10.70;;;8.15;100.00;102167.03;4990064;28;20141;-79
2024/01/31 04:50:56;;;;;;;12.40;7.35;;;9.90;6.80;;;8.44;100.00;102201.53;4992310;28;20065;-78
2024/01/31 04:53:22;;;;;;;7.35;6.28;;;9.90;7.70;;;8.67;100.00;102237.78;4976347;28;20415;-79
2024/01/31 04:55:49;;;;;;;10.13;5.28;;;9.90;6.80;;;8.74;100.00;102252.72;4984877;28;20122;-79
2024/01/31 04:58:17;;;;;;;10.75;5.65;;;10.00;4.70;;;8.63;100.00;102241.19;4999395;28;20050;-80
2024/01/31 05:00:58;;;;;;;7.63;5.97;;;9.90;1.50;;;8.50;100.00;102222.63;4978933;28;20056;-79
2024/01/31 05:03:30;;;;;;;6.57;5.72;;;10.20;1.00;;;7.50;100.00;102065.59;4978026;28;20109;-79
2024/01/31 05:06:06;;;;;;;8.73;5.68;;;9.90;1.00;;;8.56;100.00;102232.34;4977571;28;20051;-80
2024/01/31 05:08:42;;;;;;;13.52;6.00;;;9.90;1.00;;;8.57;100.00;102222.75;4948002;28;20047;-79
2024/01/31 05:11:19;;;;;;;9.38;5.30;;;9.90;1.00;;;8.60;100.00;102238.53;4915916;28;20441;-80
2024/01/31 05:13:48;;;;;;;8.13;5.45;;;9.90;1.00;;;8.57;100.00;102256.84;4962511;28;20057;-80
2024/01/31 05:16:24;;;;;;;7.70;6.28;;;9.90;1.00;;;8.59;100.00;102248.16;4928791;29;20060;-79
2024/01/31 05:19:04;;;;;;;6.97;5.63;;;9.90;1.00;;;8.40;100.00;102220.72;4924841;29;20131;-79
2024/01/31 05:21:33;;;;;;;11.25;6.60;;;9.90;1.00;;;8.63;100.00;102252.59;4869499;29;20051;-78
2024/01/31 05:24:01;;;;;;;7.88;6.03;;;9.90;1.00;;;8.44;100.00;102232.16;4884311;29;20044;-80
2024/01/31 05:26:28;;;;;;;7.32;6.03;;;10.70;1.00;;;8.53;100.00;102257.69;4876435;29;20056;-79
2024/01/31 05:28:55;;;;;;;9.95;5.97;;;9.90;1.00;;;8.52;100.00;102217.44;4861367;29;20555;-78
2024/01/31 05:31:22;;;;;;;8.00;5.45;;;9.90;1.00;;;8.54;100.00;102228.81;4858786;29;20048;-82
2024/01/31 05:33:51;;;;;;;11.07;7.40;;;10.10;1.00;;;8.59;100.00;102237.66;4876952;29;20527;-83
2024/01/31 05:36:18;;;;;;;10.77;7.80;;;10.30;1.00;;;8.44;100.00;102205.94;4893326;29;20056;-82
2024/01/31 05:38:45;;;;;;;11.07;8.35;;;9.90;1.00;;;8.33;100.00;102192.63;4891946;29;20060;-83
2024/01/31 05:41:13;;;;;;;10.18;7.63;;;10.20;1.00;;;7.61;100.00;102084.09;4892135;29;20566;-82
2024/01/31 05:43:41;;;;;;;14.63;8.45;;;9.90;1.00;;;8.12;100.00;102178.34;4876856;29;20048;-84
2024/01/31 05:46:08;;;;;;;11.48;7.55;;;9.90;1.00;;;7.64;100.00;102098.97;4908080;29;21064;-84
2024/01/31 05:48:40;;;;;;;12.95;6.68;;;10.90;1.00;;;8.76;100.00;102272.00;4900029;29;20054;-82
2024/01/31 05:51:07;;;;;;;8.73;6.47;;;9.90;1.00;;;7.31;100.00;102038.22;4948616;28;20054;-81
2024/01/31 05:53:37;;;;;;;19.70;12.20;;;9.90;1.00;;;8.68;100.00;102262.25;4960408;28;20420;-82
2024/01/31 05:56:04;;;;;;;59.58;33.38;;;9.90;1.00;;;7.72;100.00;102128.81;4987455;28;20083;-80
2024/01/31 05:58:33;;;;;;;33.70;20.50;;;9.90;1.00;;;8.75;100.00;102298.25;4966281;28;20074;-82
2024/01/31 06:01:00;;;;;;;55.50;27.85;;;10.10;1.00;;;7.66;100.00;102120.84;4997755;28;20104;-80
2024/01/31 06:03:28;;;;;;;29.83;16.02;;;9.90;1.00;;;8.40;100.00;102254.84;4987884;28;20073;-79
2024/01/31 06:05:55;;;;;;;12.73;8.65;;;9.90;1.00;;;8.33;100.00;102221.47;5003375;28;20057;-80
2024/01/31 06:08:25;;;;;;;19.60;11.13;;;9.80;1.00;;;8.73;100.00;102292.06;5002488;28;20048;-83
2024/01/31 06:10:58;;;;;;;43.45;21.65;;;10.30;1.00;;;8.46;100.00;102239.16;4986682;28;20046;-79
2024/01/31 06:13:25;;;;;;;30.75;15.90;;;10.60;1.00;;;7.46;100.00;102082.09;4989845;28;20124;-81
2024/01/31 06:15:52;;;;;;;17.23;11.90;;;9.50;1.00;;;8.50;100.00;102264.63;4972589;28;20046;-80
2024/01/31 06:18:23;;;;;;;21.38;12.45;;;9.80;1.00;;;7.72;100.00;102146.25;4990904;28;20034;-80
2024/01/31 06:20:53;;;;;;;22.45;11.30;;;11.00;1.00;;;7.44;100.00;102093.44;5008951;28;20147;-80
2024/01/31 06:23:20;;;;;;;13.70;9.02;;;10.10;1.00;;;8.46;100.00;102246.19;4984325;28;20104;-81
2024/01/31 06:25:49;;;;;;;15.00;9.67;;;9.70;1.00;;;8.54;100.00;102264.69;4986088;28;20069;-81
2024/01/31 06:28:19;;;;;;;11.57;8.50;;;9.70;2.00;;;8.37;100.00;102247.78;4959143;28;20089;-80
2024/01/31 06:30:58;;;;;;;15.00;8.82;;;9.60;1.00;;;8.45;100.00;102276.75;4958357;28;20110;-81
2024/01/31 06:33:31;;;;;;;14.30;9.73;;;9.70;1.00;;;7.65;100.00;102161.03;4944583;28;20105;-80
2024/01/31 06:36:01;;;;;;;13.55;8.95;;;9.70;1.00;;;7.91;100.00;102194.63;4978904;28;20055;-80
2024/01/31 06:38:28;;;;;;;12.68;9.43;;;10.00;1.00;;;7.52;100.00;102146.81;4977746;28;20046;-80
2024/01/31 06:40:58;;;;;;;10.65;8.57;;;9.60;1.00;;;8.42;100.00;102276.72;4961873;28;20484;-82
2024/01/31 06:43:25;;;;;;;9.82;8.18;;;10.20;1.00;;;8.43;100.00;102311.69;4978115;28;20046;-81
2024/01/31 06:45:53;;;;;;;13.13;8.88;;;10.90;5.80;;;8.32;100.00;102277.41;4994027;28;20081;-82
2024/01/31 06:48:20;;;;;;;12.50;8.65;;;9.60;9.10;;;8.19;100.00;102242.25;4979034;28;20053;-81
2024/01/31 06:50:48;;;;;;;17.90;9.10;;;9.70;7.30;;;8.48;100.00;102286.44;4977602;28;20050;-82
2024/01/31 06:53:15;;;;;;;14.73;9.85;;;10.10;1.00;;;8.27;100.00;102255.50;4972774;28;20070;-81
2024/01/31 06:55:42;;;;;;;10.93;9.15;;;10.30;11.00;;;7.48;100.00;102100.47;4942189;28;20161;-81
2024/01/31 06:58:09;;;;;;;12.88;9.05;;;10.20;3.70;;;7.28;100.00;102084.41;4974317;28;20057;-81
2024/01/31 07:00:36;;;;;;;18.95;10.65;;;9.30;1.00;;;7.44;100.00;102111.75;4950495;28;20073;-81
2024/01/31 07:03:03;;;;;;;16.05;11.05;;;10.30;11.80;;;8.04;100.00;102204.44;4977710;28;20078;-82
2024/01/31 07:05:30;;;;;;;13.85;10.30;;;9.00;5.90;;;7.55;100.00;102139.00;4959922;28;20046;-81
2024/01/31 07:07:58;;;;;;;13.10;9.80;;;10.40;5.60;;;7.70;100.00;102164.59;4958962;28;20108;-81
2024/01/31 07:10:25;;;;;;;14.20;10.63;;;10.50;1.00;;;7.48;100.00;102145.84;4959097;28;20042;-81
2024/01/31 07:12:53;;;;;;;11.95;9.07;;;10.10;1.40;;;7.51;100.00;102147.66;4990475;28;20043;-81
2024/01/31 07:15:20;;;;;;;14.07;11.10;;;10.00;5.90;;;7.47;100.00;102124.91;4975145;28;20505;-81
2024/01/31 07:17:48;;;;;;;18.13;11.15;;;10.50;12.20;;;7.44;100.00;102125.72;4975711;28;20050;-81
2024/01/31 07:20:15;;;;;;;13.13;9.77;;;10.50;18.20;;;7.21;100.00;102117.44;4991874;28;20051;-81
2024/01/31 07:22:42;;;;;;;13.75;10.85;;;9.60;17.60;;;7.20;100.00;102092.13;4977429;28;20405;-81
2024/01/31 07:25:13;;;;;;;14.07;10.32;;;9.80;21.20;;;6.94;100.00;102089.91;4995659;28;20129;-82
2024/01/31 07:27:41;;;;;;;16.02;10.50;;;9.80;15.50;;;6.66;100.00;102034.47;4984494;28;20050;-82
2024/01/31 07:30:12;;;;;;;14.25;10.50;;;9.80;19.90;;;7.66;100.00;102189.84;5014983;28;20042;-82
2024/01/31 07:32:40;;;;;;;16.02;11.27;;;9.50;22.20;;;6.96;100.00;102072.53;4999883;28;20483;-81
2024/01/31 07:35:11;;;;;;;12.63;9.57;;;10.90;25.10;;;8.16;100.00;102273.69;5007409;28;20098;-82
2024/01/31 07:37:41;;;;;;;14.55;10.52;;;10.10;26.30;;;8.25;100.00;102289.53;4963929;28;20053;-81
2024/01/31 07:40:09;;;;;;;16.33;11.80;;;10.70;35.00;;;8.08;100.00;102271.78;4984488;28;20057;-81
2024/01/31 07:42:38;;;;;;;17.33;12.68;;;8.60;33.30;;;8.09;100.00;102280.56;4996051;28;20061;-82
2024/01/31 07:45:06;;;;;;;15.15;11.73;;;9.40;31.00;;;8.11;100.00;102284.09;4963905;28;20046;-81
2024/01/31 07:47:36;;;;;;;15.50;11.88;;;9.50;30.20;;;8.11;100.00;102286.72;4979369;28;20097;-81
2024/01/31 07:50:07;;;;;;;18.25;12.00;;;9.50;25.10;;;8.21;100.00;102300.84;5002786;28;20049;-81
2024/01/31 07:52:34;;;;;;;15.60;11.50;;;9.50;24.80;;;8.29;100.00;102316.72;4978706;28;20053;-82
2024/01/31 07:55:08;;;;;;;14.15;10.80;;;9.50;21.90;;;8.36;100.00;102329.09;4990272;28;20046;-81
2024/01/31 07:57:35;;;;;;;15.68;11.45;;;9.60;28.50;;;8.36;100.00;102329.97;4989460;28;20050;-80
2024/01/31 08:00:06;;;;;;;16.75;12.20;;;10.00;33.40;;;8.32;100.00;102312.41;4993270;28;20628;-81
2024/01/31 08:02:33;;;;;;;18.88;11.32;;;9.50;31.90;;;8.21;100.00;102298.22;4977707;28;20062;-79
2024/01/31 08:05:00;;;;;;;12.38;10.73;;;9.50;30.80;;;8.17;100.00;102292.03;4998266;28;20048;-81
2024/01/31 08:07:27;;;;;;;16.65;11.55;;;10.70;31.50;;;8.36;100.00;102323.84;4970616;28;20489;-82
2024/01/31 08:09:55;;;;;;;17.00;13.13;;;10.20;29.80;;;8.31;100.00;102320.25;4994581;28;20046;-82
2024/01/31 08:12:22;;;;;;;16.45;12.88;;;10.40;33.40;;;7.26;100.00;102151.59;4978791;28;20149;-82
2024/01/31 08:14:49;;;;;;;16.80;12.13;;;11.00;33.80;;;7.72;100.00;102241.47;4999432;28;20043;-80
2024/01/31 08:17:16;;;;;;;16.10;12.00;;;10.00;29.90;;;8.07;100.00;102287.53;4996026;28;20049;-80
2024/01/31 08:19:44;;;;;;;17.30;12.68;;;9.70;25.70;;;7.76;100.00;102250.28;4995481;28;20046;-82
2024/01/31 08:22:12;;;;;;;16.50;11.63;;;9.60;26.60;;;7.89;100.00;102248.75;4975395;28;20137;-82
2024/01/31 08:24:39;;;;;;;14.68;12.00;;;9.70;27.20;;;7.80;100.00;102234.66;5001878;28;20038;-81
2024/01/31 08:27:06;;;;;;;14.32;11.85;;;9.60;24.10;;;8.39;100.00;102313.41;4985492;28;20094;-80
2024/01/31 08:29:33;;;;;;;22.33;13.25;;;9.70;22.10;;;8.09;100.00;102263.06;4983745;28;20050;-81
2024/01/31 08:32:00;;;;;;;17.65;13.25;;;10.60;19.20;;;7.31;100.00;102137.72;4983954;28;20394;-82
2024/01/31 08:34:27;;;;;;;15.75;12.88;;;10.50;17.90;;;7.66;100.00;102192.47;4984639;28;20144;-83
2024/01/31 08:36:58;;;;;;;17.30;12.60;;;10.40;17.10;;;8.46;100.00;102299.50;4999031;28;20161;-80
2024/01/31 08:39:28;;;;;;;19.75;15.43;;;10.70;20.50;;;7.57;100.00;102170.47;4996883;28;20053;-83
2024/01/31 08:41:55;;;;;;;28.20;18.50;;;10.50;17.00;;;8.53;100.00;102300.53;4980640;28;20073;-84
2024/01/31 08:44:22;;;;;;;20.08;15.95;;;10.60;14.50;;;7.62;100.00;102161.84;4981947;28;20078;-80
2024/01/31 08:46:51;;;;;;;19.17;14.10;;;10.00;14.60;;;8.43;100.00;102303.81;4975276;28;20650;-83
2024/01/31 08:49:38;;;;;;;22.60;15.13;;;9.90;13.70;;;8.61;100.00;102309.41;4984036;28;20061;-81
2024/01/31 08:52:06;;;;;;;17.75;14.35;;;9.90;15.50;;;8.63;100.00;102301.53;4974508;28;20042;-82
2024/01/31 08:54:33;;;;;;;20.58;14.88;;;10.00;10.90;;;8.55;100.00;102274.31;5000783;28;20039;-83
2024/01/31 08:57:00;;;;;;;19.05;13.57;;;10.00;9.10;;;8.63;100.00;102281.44;4983250;28;20133;-80
2024/01/31 08:59:27;;;;;;;19.83;13.60;;;10.00;6.70;;;8.74;100.00;102297.34;4999617;28;20050;-84
2024/01/31 09:01:54;;;;;;;22.23;16.67;;;10.00;5.20;;;8.69;100.00;102293.78;4983747;28;20052;-82
2024/01/31 09:04:22;;;;;;;29.85;21.83;;;10.10;5.00;;;8.83;100.00;102309.72;4988526;28;20050;-84
2024/01/31 09:06:50;;;;;;;28.33;20.25;;;10.10;5.00;;;8.97;100.00;102307.28;4983762;28;20054;-84
2024/01/31 09:09:17;;;;;;;19.73;14.65;;;10.20;1.20;;;9.13;100.00;102341.63;4978763;28;20092;-82
2024/01/31 09:11:44;;;;;;;20.52;14.25;;;10.20;1.00;;;8.11;100.00;102173.97;4975846;28;20046;-82
2024/01/31 09:14:12;;;;;;;18.23;13.15;;;11.00;1.00;;;8.92;100.00;102282.72;4974967;28;20042;-81
2024/01/31 09:16:39;;;;;;;15.38;10.63;;;10.30;1.00;;;7.97;100.00;102112.56;4972614;28;20537;-80
2024/01/31 09:19:07;;;;;;;16.40;10.27;;;10.40;1.00;;;8.69;100.00;102229.91;4942989;28;20050;-83
2024/01/31 09:21:35;;;;;;;13.30;9.00;;;10.60;1.00;;;8.44;100.00;102191.06;4991406;28;20058;-83
2024/01/31 09:24:02;;;;;;;10.45;8.73;;;11.20;1.00;;;9.01;100.00;102250.44;4959175;28;20050;-84
2024/01/31 09:26:29;;;;;;;9.52;8.05;;;10.50;1.00;;;9.27;100.00;102305.91;4966386;28;20097;-82
2024/01/31 09:28:57;;;;;;;8.95;6.55;;;11.60;1.00;;;8.92;100.00;102235.47;4997441;28;20047;-80
2024/01/31 09:31:26;;;;;;;9.15;6.88;;;10.60;1.00;;;9.42;100.00;102318.38;4974766;28;20074;-81
2024/01/31 09:33:55;;;;;;;8.50;6.25;;;10.90;1.00;;;8.29;100.00;102143.63;4973933;28;20047;-81
2024/01/31 09:36:23;;;;;;;7.05;5.43;;;10.60;1.00;;;8.68;100.00;102200.16;4970958;28;20049;-81
2024/01/31 09:38:53;;;;;;;8.80;5.55;;;10.00;1.00;;;8.55;100.00;102157.13;4976623;28;20050;-81
2024/01/31 09:41:21;;;;;;;8.35;5.68;;;10.60;99.90;;;8.53;100.00;102143.09;4987025;28;20413;-81
2024/01/31 09:43:53;;;;;;;7.90;5.32;;;11.60;99.90;;;8.51;100.00;102145.72;4992339;28;20038;-82
2024/01/31 09:46:20;;;;;;;8.07;5.55;;;11.30;99.90;;;9.59;100.00;102343.97;4960003;28;20050;-80
2024/01/31 09:48:47;;;;;;;9.30;6.45;;;10.80;99.90;;;9.14;100.00;102236.59;4967703;28;20054;-82
2024/01/31 09:51:17;;;;;;;9.90;7.53;;;10.70;99.90;;;8.91;100.00;102204.81;4990690;28;20054;-83
2024/01/31 09:53:57;;;;;;;6.50;5.40;;;10.60;99.90;;;8.00;100.00;102065.44;4959903;28;20081;-81
2024/01/31 09:56:31;;;;;;;7.15;4.93;;;11.10;99.90;;;9.09;100.00;102204.16;4982612;28;20178;-82
2024/01/31 09:58:59;;;;;;;9.90;5.00;;;11.70;99.90;;;8.18;100.00;102072.69;4975078;28;20043;-82
2024/01/31 10:01:26;;;;;;;6.78;4.55;;;10.80;1.00;;;9.39;100.00;102239.53;4996328;28;20085;-82
2024/01/31 10:03:59;;;;;;;4.82;4.20;;;10.90;1.00;;;9.73;100.00;102296.81;4966000;28;20521;-80
2024/01/31 10:06:28;;;;;;;7.82;4.28;;;11.60;1.00;;;9.62;100.00;102266.06;4961804;28;20621;-82
2024/01/31 10:08:59;;;;;;;6.10;3.45;;;10.90;15.80;;;9.63;100.00;102248.53;4995993;28;20054;-82
2024/01/31 10:11:30;;;;;;;4.43;3.60;;;10.90;1.00;;;8.90;100.00;102140.06;4976172;28;20717;-81
2024/01/31 10:13:57;;;;;;;5.55;3.67;;;11.00;70.40;;;8.79;100.00;102097.94;4963904;28;20692;-80
2024/01/31 10:16:25;;;;;;;5.68;3.60;;;11.00;1.00;;;9.64;100.00;102230.16;4980787;28;20392;-81
2024/01/31 10:18:55;;;;;;;5.03;2.92;;;11.00;66.40;;;9.54;100.00;102204.63;4980210;28;20402;-81